createdAt,value
2024-01-25T00:00:30.025Z,31.87
2024-01-25T00:01:02.030Z,31.20
2024-01-25T00:01:34.617Z,32.00
2024-01-25T00:02:10.910Z,31.77
2024-01-25T00:02:44.610Z,30.30
2024-01-25T00:03:17.905Z,29.40
2024-01-25T00:03:49.805Z,29.07
2024-01-25T00:04:21.936Z,29.43
2024-01-25T00:04:54.273Z,29.30
2024-01-25T00:05:28.962Z,29.33
2024-01-25T00:06:09.798Z,30.03
2024-01-25T00:06:43.636Z,29.83
2024-01-25T00:07:16.238Z,29.77
2024-01-25T00:07:48.958Z,29.60
2024-01-25T00:08:20.969Z,30.43
2024-01-25T00:08:54.169Z,29.57
2024-01-25T00:09:25.925Z,31.17
2024-01-25T00:09:59.630Z,30.10
2024-01-25T00:10:31.860Z,29.53
2024-01-25T00:11:04.509Z,30.73
2024-01-25T00:11:36.888Z,29.70
2024-01-25T00:12:08.837Z,29.70
2024-01-25T00:12:40.867Z,29.97
2024-01-25T00:13:13.720Z,31.57
2024-01-25T00:13:48.585Z,31.17
2024-01-25T00:14:20.467Z,29.90
2024-01-25T00:14:53.642Z,29.47
2024-01-25T00:15:25.502Z,29.70
2024-01-25T00:15:57.457Z,30.17
2024-01-25T00:16:29.355Z,31.30
2024-01-25T00:17:01.273Z,31.50
2024-01-25T00:17:33.206Z,32.63
2024-01-25T00:18:06.361Z,32.10
2024-01-25T00:18:38.470Z,30.97
2024-01-25T00:19:11.899Z,30.97
2024-01-25T00:19:46.751Z,30.87
2024-01-25T00:20:18.837Z,31.33
2024-01-25T00:20:51.150Z,30.37
2024-01-25T00:21:23.011Z,30.40
2024-01-25T00:21:54.955Z,31.27
2024-01-25T00:22:27.677Z,31.57
2024-01-25T00:22:59.582Z,30.60
2024-01-25T00:23:32.676Z,29.03
2024-01-25T00:24:05.015Z,29.60
2024-01-25T00:24:38.316Z,29.00
2024-01-25T00:25:10.343Z,28.53
2024-01-25T00:25:42.480Z,29.43
2024-01-25T00:26:14.453Z,30.30
2024-01-25T00:26:49.630Z,30.80
2024-01-25T00:27:21.862Z,30.00
2024-01-25T00:27:54.261Z,29.93
2024-01-25T00:28:27.022Z,29.80
2024-01-25T00:28:59.421Z,29.67
2024-01-25T00:29:32.578Z,29.27
2024-01-25T00:30:06.180Z,30.50
2024-01-25T00:30:38.250Z,31.07
2024-01-25T00:31:10.113Z,31.27
2024-01-25T00:31:42.607Z,29.93
2024-01-25T00:32:14.782Z,30.60
2024-01-25T00:32:46.874Z,30.93
2024-01-25T00:33:19.399Z,30.10
2024-01-25T00:33:51.668Z,28.93
2024-01-25T00:34:23.942Z,28.47
2024-01-25T00:34:56.101Z,30.07
2024-01-25T00:35:28.715Z,29.70
2024-01-25T00:36:00.954Z,29.07
2024-01-25T00:36:33.042Z,28.97
2024-01-25T00:37:05.076Z,28.93
2024-01-25T00:37:37.789Z,30.00
2024-01-25T00:38:10.474Z,29.53
2024-01-25T00:38:42.648Z,29.00
2024-01-25T00:39:14.565Z,29.13
2024-01-25T00:39:46.647Z,28.90
2024-01-25T00:40:19.672Z,28.00
2024-01-25T00:40:51.955Z,29.37
2024-01-25T00:41:24.418Z,29.07
2024-01-25T00:42:03.428Z,29.60
2024-01-25T00:42:57.065Z,29.57
2024-01-25T00:43:29.300Z,30.83
2024-01-25T00:44:02.209Z,30.90
2024-01-25T00:44:34.473Z,31.33
2024-01-25T00:45:06.675Z,30.90
2024-01-25T00:45:39.041Z,30.17
2024-01-25T00:46:11.442Z,29.97
2024-01-25T00:46:44.378Z,30.70
2024-01-25T00:47:17.005Z,30.70
2024-01-25T00:47:49.128Z,29.83
2024-01-25T00:48:22.582Z,30.63
2024-01-25T00:48:54.718Z,31.37
2024-01-25T00:49:27.129Z,31.27
2024-01-25T00:49:59.388Z,30.70
2024-01-25T00:50:31.627Z,30.33
2024-01-25T00:51:08.156Z,30.03
2024-01-25T00:51:47.315Z,29.37
2024-01-25T00:52:19.360Z,30.23
2024-01-25T00:52:53.897Z,30.50
2024-01-25T00:53:26.085Z,29.13
2024-01-25T00:53:57.963Z,29.80
2024-01-25T00:54:30.469Z,30.43
2024-01-25T00:55:03.847Z,29.00
2024-01-25T00:55:35.898Z,28.70
2024-01-25T00:56:08.276Z,29.57
2024-01-25T00:56:40.216Z,31.83
2024-01-25T00:57:12.482Z,30.67
2024-01-25T00:57:44.947Z,30.17
2024-01-25T00:58:17.371Z,31.27
2024-01-25T00:58:53.496Z,30.37
2024-01-25T00:59:25.945Z,31.30
2024-01-25T00:59:58.098Z,30.77
2024-01-25T01:00:30.268Z,30.70
2024-01-25T01:01:03.000Z,30.33
2024-01-25T01:01:35.186Z,30.70
2024-01-25T01:02:12.377Z,30.90
2024-01-25T01:02:45.127Z,30.37
2024-01-25T01:03:19.448Z,30.00
2024-01-25T01:03:54.329Z,30.83
2024-01-25T01:04:27.964Z,31.93
2024-01-25T01:05:00.382Z,31.07
2024-01-25T01:05:32.919Z,31.37
2024-01-25T01:06:05.345Z,30.93
2024-01-25T01:06:37.963Z,31.07
2024-01-25T01:07:15.400Z,32.70
2024-01-25T01:07:47.868Z,31.57
2024-01-25T01:08:20.077Z,30.57
2024-01-25T01:08:52.204Z,31.07
2024-01-25T01:09:24.064Z,29.77
2024-01-25T01:09:56.025Z,30.20
2024-01-25T01:10:28.013Z,31.07
2024-01-25T01:10:59.956Z,30.40
2024-01-25T01:11:33.421Z,31.60
2024-01-25T01:12:05.526Z,31.87
2024-01-25T01:12:40.065Z,31.53
2024-01-25T01:13:13.081Z,30.93
2024-01-25T01:13:44.968Z,31.17
2024-01-25T01:14:17.164Z,31.30
2024-01-25T01:14:49.345Z,30.60
2024-01-25T01:15:21.264Z,30.10
2024-01-25T01:15:54.549Z,30.90
2024-01-25T01:16:26.668Z,29.23
2024-01-25T01:16:58.650Z,31.53
2024-01-25T01:17:30.706Z,30.73
2024-01-25T01:18:02.671Z,30.13
2024-01-25T01:18:34.782Z,29.27
2024-01-25T01:19:09.320Z,30.57
2024-01-25T01:19:41.414Z,29.03
2024-01-25T01:20:13.486Z,29.30
2024-01-25T01:20:47.284Z,30.40
2024-01-25T01:21:19.359Z,31.27
2024-01-25T01:21:51.350Z,31.07
2024-01-25T01:22:24.059Z,31.40
2024-01-25T01:22:56.150Z,30.40
2024-01-25T01:23:30.996Z,31.63
2024-01-25T01:24:30.435Z,31.47
2024-01-25T01:25:08.413Z,30.83
2024-01-25T01:25:40.487Z,30.27
2024-01-25T01:26:12.557Z,28.60
2024-01-25T01:26:45.524Z,31.03
2024-01-25T01:27:17.470Z,30.17
2024-01-25T01:27:51.630Z,30.50
2024-01-25T01:28:24.893Z,29.50
2024-01-25T01:28:57.245Z,30.73
2024-01-25T01:29:30.054Z,30.27
2024-01-25T01:30:02.082Z,30.63
2024-01-25T01:30:34.102Z,30.40
2024-01-25T01:31:07.138Z,29.87
2024-01-25T01:31:39.617Z,29.43
2024-01-25T01:32:11.903Z,29.37
2024-01-25T01:32:44.105Z,29.10
2024-01-25T01:33:16.077Z,29.53
2024-01-25T01:33:48.420Z,29.80
2024-01-25T01:34:20.649Z,29.37
2024-01-25T01:34:53.862Z,31.30
2024-01-25T01:35:26.324Z,29.73
2024-01-25T01:35:58.329Z,30.20
2024-01-25T01:36:30.397Z,30.23
2024-01-25T01:37:02.389Z,29.50
2024-01-25T01:37:40.296Z,30.77
2024-01-25T01:38:14.382Z,30.10
2024-01-25T01:38:46.605Z,29.97
2024-01-25T01:39:19.632Z,29.97
2024-01-25T01:39:52.101Z,30.17
2024-01-25T01:40:29.144Z,29.33
2024-01-25T01:41:01.287Z,27.47
2024-01-25T01:41:33.448Z,28.77
2024-01-25T01:42:10.042Z,30.10
2024-01-25T01:42:44.094Z,29.73
2024-01-25T01:43:19.880Z,29.90
2024-01-25T01:43:55.387Z,29.90
2024-01-25T01:44:28.319Z,29.47
2024-01-25T01:45:03.264Z,28.73
2024-01-25T01:45:36.718Z,30.00
2024-01-25T01:46:13.554Z,30.30
2024-01-25T01:46:46.145Z,31.03
2024-01-25T01:47:19.918Z,29.73
2024-01-25T01:47:53.967Z,30.53
2024-01-25T01:48:27.194Z,30.23
2024-01-25T01:49:00.098Z,29.87
2024-01-25T01:49:33.232Z,29.97
2024-01-25T01:50:07.011Z,30.80
2024-01-25T01:50:39.646Z,30.73
2024-01-25T01:51:13.442Z,30.63
2024-01-25T01:51:46.712Z,31.60
2024-01-25T01:52:19.748Z,31.13
2024-01-25T01:52:53.064Z,30.77
2024-01-25T01:53:24.935Z,30.10
2024-01-25T01:53:57.770Z,30.87
2024-01-25T01:54:29.918Z,30.10
2024-01-25T01:55:02.571Z,30.60
2024-01-25T01:55:34.929Z,30.33
2024-01-25T01:56:07.835Z,30.67
2024-01-25T01:56:42.989Z,30.63
2024-01-25T01:57:15.110Z,30.33
2024-01-25T01:57:48.676Z,30.53
2024-01-25T01:58:22.738Z,30.00
2024-01-25T01:58:55.414Z,30.93
2024-01-25T01:59:27.354Z,30.27
2024-01-25T02:00:00.409Z,30.93
2024-01-25T02:00:32.303Z,31.00
2024-01-25T02:01:04.869Z,30.47
2024-01-25T02:01:36.994Z,30.60
2024-01-25T02:02:09.026Z,30.63
2024-01-25T02:02:40.945Z,29.80
2024-01-25T02:03:12.962Z,29.30
2024-01-25T02:03:44.888Z,29.30
2024-01-25T02:04:17.075Z,29.70
2024-01-25T02:04:49.420Z,30.07
2024-01-25T02:05:21.347Z,29.77
2024-01-25T02:05:54.265Z,28.53
2024-01-25T02:06:26.517Z,30.07
2024-01-25T02:06:58.372Z,30.43
2024-01-25T02:07:31.646Z,30.13
2024-01-25T02:08:04.485Z,29.20
2024-01-25T02:08:36.292Z,28.83
2024-01-25T02:09:08.103Z,28.57
2024-01-25T02:09:42.673Z,29.33
2024-01-25T02:10:14.637Z,29.50
2024-01-25T02:10:46.523Z,29.60
2024-01-25T02:11:19.050Z,29.17
2024-01-25T02:12:00.058Z,29.30
2024-01-25T02:12:31.924Z,30.10
2024-01-25T02:13:04.041Z,29.87
2024-01-25T02:13:37.473Z,28.70
2024-01-25T02:14:12.370Z,28.47
2024-01-25T02:14:45.951Z,29.97
2024-01-25T02:15:17.788Z,28.83
2024-01-25T02:15:50.913Z,28.03
2024-01-25T02:16:23.472Z,28.67
2024-01-25T02:16:58.316Z,28.73
2024-01-25T02:53:24.521Z,27.57
2024-01-25T02:53:56.461Z,27.80
2024-01-25T02:54:31.094Z,28.47
2024-01-25T02:55:03.167Z,29.87
2024-01-25T02:55:35.347Z,28.63
2024-01-25T02:56:07.404Z,28.60
2024-01-25T02:56:39.432Z,29.83
2024-01-25T02:57:11.459Z,29.87
2024-01-25T02:57:43.433Z,28.73
2024-01-25T02:58:16.806Z,28.80
2024-01-25T02:58:48.668Z,29.97
2024-01-25T02:59:20.462Z,29.17
2024-01-25T02:59:52.341Z,30.00
2024-01-25T03:00:24.173Z,29.97
2024-01-25T03:00:56.132Z,28.63
2024-01-25T03:01:29.103Z,28.80
2024-01-25T03:02:01.178Z,28.33
2024-01-25T03:02:33.100Z,28.00
2024-01-25T03:03:05.174Z,30.33
2024-01-25T03:03:37.253Z,29.77
2024-01-25T03:04:09.736Z,30.27
2024-01-25T03:04:41.676Z,30.33
2024-01-25T03:05:14.756Z,30.03
2024-01-25T03:05:46.789Z,30.97
2024-01-25T03:06:18.745Z,31.10
2024-01-25T03:06:50.762Z,30.43
2024-01-25T03:07:23.336Z,30.80
2024-01-25T03:07:55.324Z,30.37
2024-01-25T03:08:27.404Z,30.57
2024-01-25T03:08:59.387Z,29.20
2024-01-25T03:09:31.299Z,29.87
2024-01-25T03:10:04.030Z,29.40
2024-01-25T03:10:35.867Z,29.90
2024-01-25T03:11:07.813Z,30.20
2024-01-25T03:11:39.609Z,31.27
2024-01-25T03:12:11.669Z,29.43
2024-01-25T03:12:43.812Z,30.60
2024-01-25T03:13:15.827Z,31.87
2024-01-25T03:13:47.635Z,32.00
2024-01-25T03:14:22.364Z,31.73
2024-01-25T03:14:54.302Z,31.27
2024-01-25T03:15:26.191Z,32.10
2024-01-25T03:15:58.283Z,33.20
2024-01-25T03:16:30.204Z,34.73
2024-01-25T03:17:02.198Z,37.33
2024-01-25T03:17:34.084Z,34.30
2024-01-25T03:18:06.391Z,33.57
2024-01-25T03:18:38.610Z,33.67
2024-01-25T03:19:11.577Z,32.77
2024-01-25T03:19:43.805Z,31.90
2024-01-25T03:20:16.005Z,31.07
2024-01-25T03:20:48.027Z,30.77
2024-01-25T03:21:19.933Z,32.03
2024-01-25T03:21:51.885Z,32.37
2024-01-25T03:22:24.252Z,32.23
2024-01-25T03:22:57.088Z,31.60
2024-01-25T03:23:29.437Z,32.53
2024-01-25T03:24:01.222Z,34.23
2024-01-25T03:24:33.283Z,31.70
2024-01-25T03:25:05.328Z,30.00
2024-01-25T03:25:37.161Z,32.17
2024-01-25T03:26:09.067Z,31.03
2024-01-25T03:26:40.923Z,31.23
2024-01-25T03:27:14.782Z,30.80
2024-01-25T03:27:46.700Z,29.93
2024-01-25T03:28:20.193Z,29.67
2024-01-25T03:28:54.742Z,29.60
2024-01-25T03:29:26.792Z,29.43
2024-01-25T03:29:58.693Z,30.90
2024-01-25T03:30:30.618Z,30.30
2024-01-25T03:31:02.669Z,29.90
2024-01-25T03:31:34.901Z,29.93
2024-01-25T03:32:06.932Z,29.83
2024-01-25T03:32:38.902Z,29.80
2024-01-25T03:33:12.096Z,31.30
2024-01-25T03:33:44.198Z,30.30
2024-01-25T03:34:16.544Z,29.23
2024-01-25T03:34:48.890Z,29.97
2024-01-25T03:35:20.971Z,30.70
2024-01-25T03:35:53.301Z,30.90
2024-01-25T03:36:25.256Z,29.33
2024-01-25T03:36:57.487Z,30.63
2024-01-25T03:37:29.474Z,30.93
2024-01-25T03:38:01.879Z,31.43
2024-01-25T03:38:35.394Z,30.83
2024-01-25T03:39:08.507Z,30.33
2024-01-25T03:39:40.569Z,29.80
2024-01-25T03:40:12.608Z,29.63
2024-01-25T03:40:45.614Z,30.40
2024-01-25T03:41:17.595Z,30.17
2024-01-25T03:41:49.978Z,30.20
2024-01-25T03:42:24.725Z,30.70
2024-01-25T05:28:30.158Z,40.27
2024-01-25T05:29:02.221Z,39.33
2024-01-25T05:29:34.218Z,40.03
2024-01-25T05:30:06.683Z,39.83
2024-01-25T05:30:38.984Z,38.53
2024-01-25T05:31:14.018Z,39.20
2024-01-25T05:31:46.057Z,39.73
2024-01-25T05:32:17.893Z,39.50
2024-01-25T05:32:55.148Z,38.43
2024-01-25T05:33:27.177Z,39.13
2024-01-25T05:34:00.624Z,39.17
2024-01-25T05:34:32.857Z,37.03
2024-01-25T05:35:05.344Z,38.53
2024-01-25T05:35:37.763Z,38.73
2024-01-25T05:36:10.225Z,38.80
2024-01-25T05:36:42.892Z,38.10
2024-01-25T05:37:15.704Z,39.40
2024-01-25T05:37:47.591Z,38.80
2024-01-25T05:38:19.448Z,38.80
2024-01-25T05:38:52.377Z,40.77
2024-01-25T05:39:24.342Z,40.00
2024-01-25T05:39:56.247Z,41.63
2024-01-25T05:40:29.724Z,42.90
2024-01-25T05:41:02.000Z,43.50
2024-01-25T05:41:33.961Z,43.10
2024-01-25T05:42:05.949Z,42.57
2024-01-25T05:42:37.919Z,42.37
2024-01-25T05:43:11.398Z,41.80
2024-01-25T05:43:43.328Z,41.70
2024-01-25T05:44:15.312Z,44.07
2024-01-25T05:44:47.656Z,44.23
2024-01-25T05:45:21.770Z,43.17
2024-01-25T05:45:53.619Z,42.63
2024-01-25T05:46:25.676Z,42.77
2024-01-25T05:46:57.940Z,41.67
2024-01-25T05:47:29.934Z,42.00
2024-01-25T05:48:02.323Z,42.53
2024-01-25T05:48:38.529Z,43.63
2024-01-25T05:49:10.595Z,42.33
2024-01-25T05:49:42.753Z,43.47
2024-01-25T05:50:15.747Z,41.83
2024-01-25T05:50:48.593Z,43.00
2024-01-25T05:51:20.367Z,42.53
2024-01-25T05:51:52.196Z,43.27
2024-01-25T05:52:25.505Z,43.87
2024-01-25T05:52:57.404Z,43.93
2024-01-25T05:53:29.371Z,43.97
2024-01-25T05:54:01.249Z,43.03
2024-01-25T05:54:33.835Z,42.40
2024-01-25T05:55:10.841Z,43.73
2024-01-25T05:55:42.753Z,43.10
2024-01-25T05:56:14.790Z,42.93
2024-01-25T05:56:46.633Z,41.97
2024-01-25T05:57:18.781Z,42.13
2024-01-25T05:57:50.885Z,41.17
2024-01-25T05:58:23.916Z,42.10
2024-01-25T05:58:55.941Z,41.43
2024-01-25T05:59:27.978Z,41.07
2024-01-25T05:59:59.883Z,40.80
2024-01-25T06:00:31.854Z,40.50
2024-01-25T06:01:04.197Z,40.70
2024-01-25T06:01:36.171Z,40.47
2024-01-25T06:02:15.236Z,40.17
2024-01-25T06:02:47.234Z,40.47
2024-01-25T06:03:19.141Z,40.80
2024-01-25T06:03:51.180Z,40.53
2024-01-25T06:04:23.336Z,39.43
2024-01-25T06:04:55.349Z,39.90
2024-01-25T06:05:28.677Z,39.80
2024-01-25T06:06:01.194Z,39.97
2024-01-25T06:06:33.282Z,40.63
2024-01-25T06:07:05.771Z,38.97
2024-01-25T06:07:37.993Z,39.40
2024-01-25T06:08:10.082Z,39.57
2024-01-25T06:08:42.618Z,38.90
2024-01-25T06:09:18.849Z,38.67
2024-01-25T06:09:51.841Z,38.40
2024-01-25T06:10:25.205Z,37.80
2024-01-25T06:10:57.080Z,36.90
2024-01-25T06:11:28.914Z,36.87
2024-01-25T06:12:00.741Z,37.20
2024-01-25T06:12:32.583Z,37.10
2024-01-25T06:13:04.663Z,37.90
2024-01-25T06:13:36.852Z,41.33
2024-01-25T06:14:09.502Z,41.87
2024-01-25T06:14:41.424Z,41.40
2024-01-25T06:15:13.259Z,42.30
2024-01-25T06:15:45.107Z,41.00
2024-01-25T06:16:17.024Z,39.17
2024-01-25T06:16:49.302Z,42.07
2024-01-25T06:17:21.211Z,42.53
2024-01-25T06:17:53.304Z,38.40
2024-01-25T06:18:25.345Z,39.60
2024-01-25T06:18:57.440Z,41.27
2024-01-25T06:19:29.548Z,43.57
2024-01-25T06:20:01.624Z,43.90
2024-01-25T06:20:34.086Z,42.53
2024-01-25T06:21:06.158Z,40.90
2024-01-25T06:21:42.329Z,39.27
2024-01-25T06:22:14.295Z,43.50
2024-01-25T06:22:46.285Z,43.33
2024-01-25T06:23:18.095Z,43.07
2024-01-25T06:23:49.876Z,44.27
2024-01-25T06:24:21.665Z,40.07
2024-01-25T06:24:53.537Z,43.30
2024-01-25T06:25:25.503Z,42.53
2024-01-25T06:25:57.885Z,41.97
2024-01-25T06:26:32.817Z,42.17
2024-01-25T06:27:04.930Z,44.30
2024-01-25T06:27:36.743Z,41.63
2024-01-25T06:28:11.004Z,41.23
2024-01-25T06:28:45.613Z,39.60
2024-01-25T06:29:17.478Z,39.60
2024-01-25T06:29:51.748Z,40.97
2024-01-25T06:30:23.689Z,42.53
2024-01-25T06:30:59.237Z,41.47
2024-01-25T06:31:34.079Z,41.27
2024-01-25T06:32:11.035Z,41.33
2024-01-25T06:32:46.128Z,39.73
2024-01-25T06:33:18.829Z,40.03
2024-01-25T06:33:52.418Z,41.87
2024-01-25T06:34:24.709Z,40.50
2024-01-25T06:34:56.904Z,39.90
2024-01-25T06:35:29.246Z,40.37
2024-01-25T06:36:01.360Z,38.87
2024-01-25T06:36:33.214Z,40.00
2024-01-25T06:37:05.273Z,40.87
2024-01-25T06:37:38.310Z,40.67
2024-01-25T06:38:11.160Z,39.80
2024-01-25T06:38:44.325Z,50.13
2024-01-25T06:39:18.178Z,57.90
2024-01-25T06:39:50.321Z,58.50
2024-01-25T06:40:22.370Z,50.60
2024-01-25T06:40:54.517Z,54.90
2024-01-25T06:41:26.558Z,57.27
2024-01-25T06:41:59.790Z,53.23
2024-01-25T06:42:31.634Z,47.77
2024-01-25T06:43:03.679Z,45.03
2024-01-25T06:43:38.172Z,43.93
2024-01-25T06:44:10.896Z,44.63
2024-01-25T06:44:42.742Z,44.43
2024-01-25T06:45:14.570Z,45.27
2024-01-25T06:45:47.780Z,43.77
2024-01-25T06:46:19.751Z,43.20
2024-01-25T06:46:51.596Z,44.20
2024-01-25T06:47:24.303Z,43.70
2024-01-25T06:47:56.335Z,44.07
2024-01-25T06:48:28.516Z,44.80
2024-01-25T06:49:00.666Z,46.17
2024-01-25T06:49:32.800Z,48.53
2024-01-25T06:50:04.874Z,47.43
2024-01-25T06:50:37.147Z,46.07
2024-01-25T06:51:09.057Z,47.70
2024-01-25T06:51:40.883Z,49.43
2024-01-25T06:52:13.458Z,50.53
2024-01-25T06:52:46.301Z,50.27
2024-01-25T06:53:18.264Z,50.13
2024-01-25T06:53:50.101Z,51.13
2024-01-25T06:54:22.613Z,51.77
2024-01-25T06:54:54.396Z,51.07
2024-01-25T06:55:28.959Z,50.90
2024-01-25T06:56:01.138Z,52.07
2024-01-25T06:56:33.468Z,50.93
2024-01-25T06:57:05.356Z,49.80
2024-01-25T06:57:37.134Z,51.00
2024-01-25T06:58:09.418Z,50.03
2024-01-25T06:58:41.707Z,50.70
2024-01-25T06:59:14.226Z,50.83
2024-01-25T06:59:46.263Z,48.93
2024-01-25T07:00:18.542Z,49.20
2024-01-25T07:00:50.947Z,50.10
2024-01-25T07:01:24.235Z,49.67
2024-01-25T07:01:57.184Z,48.10
2024-01-25T07:02:29.749Z,47.80
2024-01-25T07:03:02.044Z,48.40
2024-01-25T07:03:35.019Z,49.30
2024-01-25T07:04:15.006Z,48.50
2024-01-25T07:04:54.811Z,50.43
2024-01-25T07:05:28.115Z,49.27
2024-01-25T07:06:00.021Z,48.50
2024-01-25T07:06:38.004Z,45.90
2024-01-25T07:07:13.586Z,49.80
2024-01-25T07:07:45.585Z,49.30
2024-01-25T07:08:17.609Z,47.37
2024-01-25T07:08:50.369Z,48.83
2024-01-25T07:09:23.179Z,53.87
2024-01-25T07:09:55.532Z,56.83
2024-01-25T07:10:29.023Z,55.57
2024-01-25T07:11:03.644Z,56.80
2024-01-25T07:11:35.456Z,50.63
2024-01-25T07:12:08.473Z,50.33
2024-01-25T07:12:40.378Z,50.63
2024-01-25T07:13:12.385Z,51.87
2024-01-25T07:13:44.560Z,46.67
2024-01-25T07:14:19.245Z,45.43
2024-01-25T07:14:51.078Z,46.27
2024-01-25T07:15:23.328Z,42.77
2024-01-25T07:15:56.235Z,41.30
2024-01-25T07:16:28.105Z,42.20
2024-01-25T07:17:00.282Z,41.13
2024-01-25T07:17:32.272Z,39.70
2024-01-25T07:18:05.020Z,38.83
2024-01-25T07:18:37.131Z,38.73
2024-01-25T07:19:09.099Z,40.27
2024-01-25T07:19:41.183Z,42.27
2024-01-25T07:20:16.039Z,40.87
2024-01-25T07:20:48.243Z,42.00
2024-01-25T07:21:21.649Z,39.93
2024-01-25T07:21:53.574Z,37.13
2024-01-25T07:22:28.018Z,39.23
2024-01-25T07:23:03.044Z,49.30
2024-01-25T07:23:35.301Z,45.93
2024-01-25T07:24:10.566Z,45.20
2024-01-25T07:24:44.783Z,47.10
2024-01-25T07:25:16.823Z,40.93
2024-01-25T07:25:48.720Z,44.47
2024-01-25T07:26:25.135Z,45.83
2024-01-25T07:26:59.338Z,45.60
2024-01-25T07:27:32.266Z,43.93
2024-01-25T07:28:06.457Z,40.80
2024-01-25T07:28:38.467Z,43.80
2024-01-25T07:29:10.428Z,49.00
2024-01-25T07:29:45.595Z,47.73
2024-01-25T07:30:17.971Z,49.70
2024-01-25T07:30:50.854Z,47.97
2024-01-25T07:31:24.490Z,49.13
2024-01-25T07:31:56.477Z,47.57
2024-01-25T07:32:28.675Z,44.53
2024-01-25T07:33:00.911Z,40.70
2024-01-25T07:33:37.092Z,42.00
2024-01-25T07:34:09.246Z,39.80
2024-01-25T07:34:41.257Z,38.63
2024-01-25T07:35:14.205Z,38.57
2024-01-25T07:35:49.402Z,42.03
2024-01-25T07:36:25.816Z,38.37
2024-01-25T07:36:58.919Z,35.70
2024-01-25T07:37:33.801Z,36.40
2024-01-25T07:38:06.998Z,35.67
2024-01-25T07:38:38.792Z,36.03
2024-01-25T07:39:12.390Z,34.60
2024-01-25T07:39:44.167Z,35.00
2024-01-25T07:40:16.640Z,35.17
2024-01-25T07:40:48.558Z,33.97
2024-01-25T07:41:20.378Z,34.23
2024-01-25T07:41:53.034Z,33.70
2024-01-25T07:42:27.700Z,35.63
2024-01-25T07:43:01.976Z,38.83
2024-01-25T07:43:34.222Z,38.47
2024-01-25T07:44:07.305Z,40.07
2024-01-25T07:44:39.442Z,35.90
2024-01-25T07:45:13.912Z,36.07
2024-01-25T07:45:45.949Z,33.47
2024-01-25T07:46:22.603Z,33.03
2024-01-25T07:46:55.838Z,32.43
2024-01-25T07:47:27.639Z,33.73
2024-01-25T07:48:08.521Z,34.07
2024-01-25T07:48:44.351Z,34.27
2024-01-25T07:49:17.182Z,32.87
2024-01-25T07:49:52.211Z,33.60
2024-01-25T07:50:24.645Z,33.57
2024-01-25T07:50:57.931Z,33.27
2024-01-25T07:51:31.658Z,32.53
2024-01-25T07:52:03.749Z,32.80
2024-01-25T07:52:35.782Z,34.83
2024-01-25T07:53:08.256Z,33.17
2024-01-25T07:53:41.264Z,32.30
2024-01-25T07:54:15.318Z,32.90
2024-01-25T07:54:47.980Z,32.33
2024-01-25T07:55:19.987Z,34.00
2024-01-25T07:55:52.682Z,33.07
2024-01-25T07:56:24.575Z,33.27
2024-01-25T07:56:56.459Z,32.13
2024-01-25T07:57:28.407Z,32.60
2024-01-25T07:58:00.371Z,33.63
2024-01-25T07:58:32.560Z,33.07
2024-01-25T07:59:05.632Z,33.37
2024-01-25T07:59:37.520Z,32.30
2024-01-25T08:00:10.604Z,32.47
2024-01-25T08:00:43.783Z,32.70
2024-01-25T08:01:18.784Z,34.87
2024-01-25T08:01:50.806Z,34.37
2024-01-25T08:02:26.279Z,35.07
2024-01-25T08:03:01.161Z,34.20
2024-01-25T08:03:34.150Z,34.83
2024-01-25T08:04:06.728Z,33.30
2024-01-25T08:04:38.840Z,33.67
2024-01-25T08:05:13.786Z,33.80
2024-01-25T08:05:51.019Z,34.20
2024-01-25T08:06:24.954Z,34.27
2024-01-25T08:06:56.984Z,32.60
2024-01-25T08:07:30.122Z,33.57
2024-01-25T08:08:02.163Z,34.57
2024-01-25T08:08:33.972Z,34.20
2024-01-25T08:09:05.802Z,34.53
2024-01-25T08:09:37.713Z,33.37
2024-01-25T08:10:09.865Z,33.00
2024-01-25T08:10:42.497Z,34.37
2024-01-25T08:11:14.452Z,34.27
2024-01-25T08:11:47.250Z,34.23
2024-01-25T08:12:19.478Z,34.90
2024-01-25T08:12:55.806Z,37.33
2024-01-25T08:13:38.778Z,35.03
2024-01-25T08:14:10.730Z,34.63
2024-01-25T08:14:44.278Z,36.30
2024-01-25T08:15:16.058Z,35.33
2024-01-25T08:15:47.863Z,35.30
2024-01-25T08:16:20.999Z,35.03
2024-01-25T08:16:53.197Z,35.90
2024-01-25T08:17:25.053Z,35.70
2024-01-25T08:17:57.001Z,35.13
2024-01-25T08:18:31.860Z,35.27
2024-01-25T08:19:05.058Z,35.20
2024-01-25T08:19:37.587Z,34.53
2024-01-25T08:20:10.962Z,34.30
2024-01-25T08:20:43.315Z,35.73
2024-01-25T08:21:15.852Z,36.17
2024-01-25T08:21:48.204Z,35.73
2024-01-25T08:22:23.223Z,36.67
2024-01-25T08:22:55.812Z,36.33
2024-01-25T08:23:27.681Z,36.30
2024-01-25T08:24:03.814Z,38.10
2024-01-25T08:24:35.645Z,35.63
2024-01-25T08:25:07.676Z,35.37
2024-01-25T08:25:40.545Z,35.37
2024-01-25T08:26:13.920Z,34.73
2024-01-25T08:26:46.636Z,34.50
2024-01-25T08:27:18.797Z,35.30
2024-01-25T08:35:42.003Z,35.50
2024-01-25T08:36:14.629Z,34.67
2024-01-25T08:36:46.428Z,35.10
2024-01-25T08:37:18.209Z,37.77
2024-01-25T08:37:50.779Z,37.40
2024-01-25T08:38:22.651Z,38.70
2024-01-25T08:38:54.417Z,41.30
2024-01-25T08:39:26.238Z,39.60
2024-01-25T08:39:58.068Z,40.10
2024-01-25T08:40:31.413Z,40.53
2024-01-25T08:41:03.475Z,42.03
2024-01-25T08:41:35.833Z,37.47
2024-01-25T08:42:11.460Z,36.00
2024-01-25T08:42:43.728Z,36.13
2024-01-25T08:43:16.070Z,37.90
2024-01-25T08:43:49.458Z,37.47
2024-01-25T08:44:21.234Z,34.27
2024-01-25T08:44:53.144Z,34.17
2024-01-25T08:45:25.260Z,34.10
2024-01-25T08:46:06.738Z,34.30
2024-01-25T08:46:39.512Z,34.90
2024-01-25T08:47:11.830Z,35.27
2024-01-25T08:47:47.891Z,35.20
2024-01-25T08:48:20.011Z,34.50
2024-01-25T08:48:52.774Z,34.80
2024-01-25T08:49:25.035Z,33.70
2024-01-25T08:49:57.523Z,33.57
2024-01-25T08:50:29.739Z,32.27
2024-01-25T08:51:03.794Z,31.27
2024-01-25T08:51:36.833Z,31.17
2024-01-25T08:52:09.293Z,31.43
2024-01-25T08:52:42.450Z,30.57
2024-01-25T08:53:15.327Z,29.80
2024-01-25T08:53:47.231Z,30.10
2024-01-25T08:54:19.024Z,29.73
2024-01-25T08:54:52.982Z,29.93
2024-01-25T08:55:25.100Z,30.23
2024-01-25T08:55:58.024Z,30.33
2024-01-25T08:56:29.799Z,29.50
2024-01-25T08:57:01.721Z,28.40
2024-01-25T08:57:33.794Z,28.77
2024-01-25T08:58:05.744Z,29.60
2024-01-25T08:58:37.543Z,28.80
2024-01-25T08:59:09.357Z,30.47
2024-01-25T08:59:41.136Z,30.30
2024-01-25T09:00:13.221Z,28.33
2024-01-25T09:00:45.378Z,28.60
2024-01-25T09:01:17.542Z,29.20
2024-01-25T09:01:49.525Z,27.73
2024-01-25T09:03:09.873Z,29.13
2024-01-25T09:03:42.611Z,28.17
2024-01-25T09:04:15.676Z,27.93
2024-01-25T09:04:49.271Z,27.70
2024-01-25T09:05:21.711Z,26.73
2024-01-25T09:05:53.893Z,26.50
2024-01-25T09:06:26.501Z,26.80
2024-01-25T09:06:58.727Z,27.60
2024-01-25T09:07:30.998Z,27.77
2024-01-25T09:08:04.887Z,26.47
2024-01-25T09:08:36.879Z,26.50
2024-01-25T09:09:09.995Z,26.20
2024-01-25T09:09:42.004Z,27.17
2024-01-25T09:10:15.535Z,27.77
2024-01-25T09:10:47.464Z,27.40
2024-01-25T09:11:21.177Z,26.47
2024-01-25T09:11:52.977Z,27.80
2024-01-25T09:12:24.857Z,27.70
2024-01-25T09:12:56.927Z,27.73
2024-01-25T09:13:30.997Z,27.53
2024-01-25T09:14:02.894Z,27.87
2024-01-25T09:14:34.667Z,27.80
2024-01-25T09:15:06.915Z,28.00
2024-01-25T09:15:38.873Z,28.67
2024-01-25T09:16:10.719Z,27.57
2024-01-25T09:16:42.654Z,27.83
2024-01-25T09:17:15.817Z,28.67
2024-01-25T09:17:47.682Z,30.27
2024-01-25T09:18:20.726Z,29.43
2024-01-25T09:18:52.748Z,28.67
2024-01-25T09:19:25.304Z,29.77
2024-01-25T09:20:00.498Z,29.60
2024-01-25T09:20:32.544Z,29.03
2024-01-25T09:21:04.493Z,29.17
2024-01-25T09:21:39.228Z,28.83
2024-01-25T09:22:11.398Z,30.30
2024-01-25T09:22:43.730Z,30.67
2024-01-25T09:23:19.066Z,29.83
2024-01-25T09:23:50.946Z,29.00
2024-01-25T09:24:24.865Z,28.70
2024-01-25T09:24:56.831Z,30.10
2024-01-25T09:25:28.760Z,31.27
2024-01-25T09:26:00.871Z,32.10
2024-01-25T09:26:32.760Z,32.40
2024-01-25T09:27:05.166Z,31.17
2024-01-25T09:27:38.108Z,32.27
2024-01-25T09:28:10.452Z,32.47
2024-01-25T09:28:42.584Z,33.30
2024-01-25T09:29:14.454Z,33.33
2024-01-25T09:29:46.620Z,32.47
2024-01-25T09:30:18.536Z,31.73
2024-01-25T09:30:50.466Z,32.23
2024-01-25T09:31:25.003Z,32.80
2024-01-25T09:31:56.936Z,30.93
2024-01-25T09:32:28.986Z,30.70
2024-01-25T09:33:01.017Z,29.73
2024-01-25T09:33:33.104Z,27.27